createdAt,value
2022-08-07T00:01:43.049Z,28.68
2022-08-07T00:06:35.026Z,28.69
2022-08-07T00:11:47.959Z,28.64
2022-08-07T00:17:02.841Z,28.61
2022-08-07T00:22:05.334Z,28.62
2022-08-07T00:27:09.333Z,28.57
2022-08-07T00:32:14.221Z,28.58
2022-08-07T00:37:17.896Z,28.52
2022-08-07T00:42:29.006Z,28.50
2022-08-07T00:48:08.089Z,28.44
2022-08-07T00:52:54.156Z,28.34
2022-08-07T00:57:56.949Z,28.43
2022-08-07T01:02:59.406Z,28.39
2022-08-07T01:08:01.545Z,28.41
2022-08-07T01:13:04.097Z,28.38
2022-08-07T01:18:07.072Z,28.40
2022-08-07T01:23:15.425Z,28.40
2022-08-07T01:28:18.360Z,28.43
2022-08-07T01:33:24.941Z,28.47
2022-08-07T01:38:47.459Z,28.44
2022-08-07T01:43:57.130Z,28.40
2022-08-07T01:49:00.072Z,28.40
2022-08-07T01:54:11.745Z,28.40
2022-08-07T01:59:34.796Z,28.42
2022-08-07T02:04:52.560Z,28.44
2022-08-07T02:10:03.183Z,28.44
2022-08-07T02:15:12.742Z,28.46
2022-08-07T02:20:23.270Z,28.47
2022-08-07T02:26:10.464Z,28.51
2022-08-07T02:30:55.441Z,28.53
2022-08-07T02:36:27.219Z,28.46
2022-08-07T02:41:22.893Z,28.47
2022-08-07T02:46:38.241Z,28.45
2022-08-07T02:51:54.289Z,28.46
2022-08-07T02:57:01.740Z,28.45
2022-08-07T03:02:05.100Z,28.42
2022-08-07T03:07:10.662Z,28.39
2022-08-07T03:12:22.368Z,28.36
2022-08-07T03:17:53.576Z,28.40
2022-08-07T03:23:00.098Z,28.42
2022-08-07T03:28:09.488Z,28.39
2022-08-07T03:33:32.296Z,28.40
2022-08-07T03:38:45.399Z,28.42
2022-08-07T03:43:56.809Z,28.38
2022-08-07T03:49:04.414Z,28.40
2022-08-07T03:54:36.461Z,28.45
2022-08-07T03:59:46.675Z,28.47
2022-08-07T04:05:00.283Z,28.53
2022-08-07T04:10:04.971Z,28.50
2022-08-07T04:15:08.992Z,28.49
2022-08-07T04:20:14.784Z,28.53
2022-08-07T04:25:19.043Z,28.58
2022-08-07T04:30:43.969Z,28.43
2022-08-07T04:35:53.910Z,28.50
2022-08-07T04:40:59.890Z,28.52
2022-08-07T04:46:34.482Z,28.50
2022-08-07T04:52:12.709Z,28.61
2022-08-07T04:58:14.297Z,28.64
2022-08-07T05:03:17.052Z,28.62
2022-08-07T05:09:45.455Z,28.65
2022-08-07T05:15:04.219Z,28.56
2022-08-07T05:20:11.936Z,28.67
2022-08-07T05:25:25.615Z,28.65
2022-08-07T05:30:42.737Z,28.63
2022-08-07T05:35:46.424Z,28.45
2022-08-07T05:40:51.922Z,28.57
2022-08-07T05:45:58.126Z,28.61
2022-08-07T05:51:03.393Z,28.56
2022-08-07T05:56:09.515Z,28.67
2022-08-07T06:01:21.194Z,28.63
2022-08-07T06:06:29.622Z,28.47
2022-08-07T06:11:37.593Z,28.61
2022-08-07T06:16:44.149Z,28.58
2022-08-07T06:22:14.940Z,28.56
2022-08-07T06:27:59.990Z,28.57
2022-08-07T06:32:46.172Z,28.60
2022-08-07T06:37:48.447Z,28.63
2022-08-07T06:42:57.544Z,28.60
2022-08-07T06:48:11.756Z,28.61
2022-08-07T06:55:27.948Z,28.65
2022-08-07T07:00:12.759Z,28.58
2022-08-07T07:04:32.534Z,28.68
2022-08-07T07:09:36.232Z,28.70
2022-08-07T07:14:42.528Z,28.66
2022-08-07T07:19:57.315Z,28.64
2022-08-07T07:26:31.054Z,28.65
2022-08-07T07:30:38.038Z,28.71
2022-08-07T07:36:04.579Z,28.61
2022-08-07T07:41:09.340Z,28.72
2022-08-07T07:46:49.989Z,28.75
2022-08-07T07:51:57.531Z,28.73
2022-08-07T07:57:01.447Z,28.70
2022-08-07T08:02:10.316Z,28.66
2022-08-07T08:07:14.309Z,28.64
2022-08-07T08:12:50.063Z,28.66
2022-08-07T08:17:57.356Z,28.68
2022-08-07T08:23:29.259Z,28.72
2022-08-07T08:28:44.829Z,28.75
2022-08-07T08:33:50.141Z,28.79
2022-08-07T08:39:01.850Z,28.79
2022-08-07T08:44:16.429Z,28.81
2022-08-07T08:50:04.545Z,28.82
2022-08-07T08:55:21.050Z,28.84
2022-08-07T09:00:52.882Z,28.83
2022-08-07T09:06:10.498Z,28.90
2022-08-07T09:11:14.073Z,28.88
2022-08-07T09:16:34.596Z,28.91
2022-08-07T09:24:32.667Z,28.95
2022-08-07T09:30:01.165Z,29.01
2022-08-07T09:34:26.327Z,29.00
2022-08-07T09:39:53.928Z,29.05
2022-08-07T09:47:50.519Z,29.06
2022-08-07T09:50:54.874Z,29.02
2022-08-07T09:56:37.634Z,29.04
2022-08-07T10:01:57.984Z,29.03
2022-08-07T10:07:25.710Z,29.03
2022-08-07T10:14:00.862Z,28.99
2022-08-07T10:19:11.090Z,29.03
2022-08-07T10:24:41.299Z,29.09
2022-08-07T10:29:53.296Z,29.07
2022-08-07T10:35:20.358Z,29.05
2022-08-07T10:40:45.394Z,28.96
2022-08-07T10:45:58.429Z,28.98
2022-08-07T10:51:05.320Z,29.11
2022-08-07T10:56:55.104Z,29.21
2022-08-07T11:02:33.057Z,29.22
2022-08-07T11:07:59.150Z,29.17
2022-08-07T11:14:43.877Z,29.26
2022-08-07T11:19:32.048Z,29.27
2022-08-07T11:24:45.654Z,29.31
2022-08-07T11:29:53.905Z,29.38
2022-08-07T11:35:26.719Z,29.44
2022-08-07T11:40:49.743Z,29.47
2022-08-07T11:46:00.358Z,29.42
2022-08-07T11:51:40.752Z,29.43
2022-08-07T11:57:02.540Z,29.42
2022-08-07T12:02:20.560Z,29.41
2022-08-07T12:07:53.305Z,29.42
2022-08-07T12:13:17.188Z,29.44
2022-08-07T12:19:05.441Z,29.53
2022-08-07T12:24:38.196Z,29.57
2022-08-07T12:29:47.008Z,29.64
2022-08-07T12:34:55.943Z,29.61
2022-08-07T12:39:59.366Z,29.63
2022-08-07T12:45:09.418Z,29.69
2022-08-07T12:50:38.929Z,29.68
2022-08-07T12:56:02.579Z,29.70
2022-08-07T13:01:18.673Z,29.75
2022-08-07T13:07:01.334Z,29.77
2022-08-07T13:12:28.762Z,29.74
2022-08-07T13:17:52.673Z,29.76
2022-08-07T13:24:00.064Z,29.77
2022-08-07T13:28:47.904Z,29.70
2022-08-07T13:34:34.408Z,29.68
2022-08-07T13:40:33.517Z,29.67
2022-08-07T13:46:20.839Z,29.68
2022-08-07T13:50:44.831Z,29.70
2022-08-07T13:56:03.241Z,29.74
2022-08-07T14:01:20.376Z,29.64
2022-08-07T14:06:32.599Z,29.74
2022-08-07T14:11:53.350Z,29.74
2022-08-07T14:17:32.342Z,29.74
2022-08-07T14:22:34.551Z,29.74
2022-08-07T14:28:19.854Z,29.77
2022-08-07T14:33:05.449Z,29.77
2022-08-07T14:38:09.717Z,29.78
2022-08-07T14:48:57.718Z,29.77
2022-08-07T15:00:03.370Z,29.78
2022-08-07T15:04:53.155Z,29.80
2022-08-07T15:10:02.022Z,29.82
2022-08-07T15:15:21.398Z,29.79
2022-08-07T15:25:56.573Z,29.83
2022-08-07T15:31:05.874Z,29.80
2022-08-07T15:36:09.962Z,29.80
2022-08-07T15:46:51.970Z,29.73
2022-08-07T15:52:10.723Z,29.84
2022-08-07T15:57:39.351Z,29.84
2022-08-07T16:02:49.443Z,29.85
2022-08-07T16:08:30.537Z,29.85
2022-08-07T16:13:59.644Z,29.87
2022-08-07T16:19:59.686Z,29.84
2022-08-07T16:25:22.857Z,29.84
2022-08-07T16:30:32.574Z,29.81
2022-08-07T16:35:50.739Z,29.87
2022-08-07T16:41:20.948Z,29.88
2022-08-07T16:47:04.852Z,29.93
2022-08-07T16:52:51.637Z,29.98
2022-08-07T16:58:01.596Z,30.01
2022-08-07T17:03:17.044Z,30.10
2022-08-07T17:09:08.790Z,30.03
2022-08-07T17:14:17.844Z,30.05
2022-08-07T17:20:00.414Z,30.06
2022-08-07T17:25:19.353Z,30.07
2022-08-07T17:30:26.622Z,30.08
2022-08-07T17:36:05.605Z,30.05
2022-08-07T17:42:02.332Z,30.07
2022-08-07T17:47:05.917Z,30.09
2022-08-07T17:52:19.044Z,30.15
2022-08-07T17:57:58.822Z,30.13
2022-08-07T18:03:28.300Z,30.12
2022-08-07T18:09:02.309Z,30.18
2022-08-07T18:14:29.120Z,30.07
2022-08-07T18:21:08.598Z,30.14
2022-08-07T18:25:40.879Z,30.21
2022-08-07T18:30:58.619Z,30.20
2022-08-07T18:36:17.325Z,30.12
2022-08-07T18:41:44.881Z,29.99
2022-08-07T18:46:58.208Z,29.88
2022-08-07T18:52:52.939Z,29.82
2022-08-07T18:57:58.561Z,29.75
2022-08-07T19:03:11.668Z,29.70
2022-08-07T19:08:31.970Z,29.69
2022-08-07T19:13:49.929Z,29.65
2022-08-07T19:19:00.264Z,29.61
2022-08-07T19:24:08.060Z,29.58
2022-08-07T19:31:05.898Z,29.52
2022-08-07T19:34:38.588Z,29.51
2022-08-07T19:39:56.877Z,29.52
2022-08-07T19:45:08.208Z,29.56
2022-08-07T19:50:43.755Z,29.58
2022-08-07T19:55:56.353Z,29.63
2022-08-07T20:00:58.048Z,29.65
2022-08-07T20:06:03.350Z,29.66
2022-08-07T20:11:10.783Z,29.65
2022-08-07T20:16:32.090Z,29.59
2022-08-07T20:21:47.664Z,29.63
2022-08-07T20:26:54.842Z,29.62
2022-08-07T20:32:00.158Z,29.65
2022-08-07T20:37:06.000Z,29.65
2022-08-07T20:42:11.914Z,29.63
2022-08-07T20:47:26.795Z,29.64
2022-08-07T20:52:51.080Z,29.55
2022-08-07T20:58:02.331Z,29.64
2022-08-07T21:03:07.178Z,29.67
2022-08-07T21:08:14.873Z,29.69
2022-08-07T21:13:24.775Z,29.71
2022-08-07T21:18:51.215Z,29.73
2022-08-07T21:24:13.029Z,29.72
2022-08-07T21:29:30.362Z,29.69
2022-08-07T21:34:48.602Z,29.69
2022-08-07T21:40:03.730Z,29.71
2022-08-07T21:46:04.893Z,29.65
2022-08-07T21:50:47.053Z,29.67
2022-08-07T21:56:35.910Z,29.64
2022-08-07T22:02:07.499Z,29.59
2022-08-07T22:07:16.087Z,29.61
2022-08-07T22:12:57.397Z,29.63
2022-08-07T22:18:06.486Z,29.53
2022-08-07T22:23:21.628Z,29.52
2022-08-07T22:28:53.640Z,29.33
2022-08-07T22:34:04.801Z,29.25
2022-08-07T22:39:52.485Z,29.16
2022-08-07T22:45:01.972Z,29.15
2022-08-07T22:50:35.624Z,29.03
2022-08-07T22:55:48.474Z,29.02
2022-08-07T23:07:54.266Z,28.96
2022-08-07T23:13:29.142Z,28.91
2022-08-07T23:18:31.965Z,28.89
2022-08-07T23:24:17.861Z,28.83
2022-08-07T23:29:43.253Z,28.77
2022-08-07T23:35:13.946Z,28.70
2022-08-07T23:40:32.379Z,28.69
2022-08-07T23:46:07.596Z,28.56
2022-08-07T23:53:05.524Z,28.61
2022-08-07T23:56:58.843Z,28.60
